sensor_id;sensor_type;location;lat;lon;timestamp;P1;durP1;ratioP1;P2;durP2;ratioP2
7025;SDS011;3554;42.132;24.786;2022-07-23T00:00:05;10.30;;;8.80;;
7025;SDS011;3554;42.132;24.786;2022-07-23T00:02:33;9.93;;;8.90;;
7025;SDS011;3554;42.132;24.786;2022-07-23T00:05:00;12.77;;;8.03;;
7025;SDS011;3554;42.132;24.786;2022-07-23T00:07:27;8.03;;;6.80;;
7025;SDS011;3554;42.132;24.786;2022-07-23T00:09:55;7.90;;;6.70;;
7025;SDS011;3554;42.132;24.786;2022-07-23T00:12:22;6.30;;;5.83;;
7025;SDS011;3554;42.132;24.786;2022-07-23T00:14:49;12.03;;;6.77;;
7025;SDS011;3554;42.132;24.786;2022-07-23T00:17:16;7.17;;;5.90;;
7025;SDS011;3554;42.132;24.786;2022-07-23T00:19:43;7.07;;;6.37;;
7025;SDS011;3554;42.132;24.786;2022-07-23T00:22:10;6.73;;;6.13;;
7025;SDS011;3554;42.132;24.786;2022-07-23T00:24:36;11.17;;;6.47;;
7025;SDS011;3554;42.132;24.786;2022-07-23T00:27:05;6.77;;;6.03;;
7025;SDS011;3554;42.132;24.786;2022-07-23T00:29:31;6.43;;;5.80;;
7025;SDS011;3554;42.132;24.786;2022-07-23T00:31:58;8.33;;;5.77;;
7025;SDS011;3554;42.132;24.786;2022-07-23T00:34:25;6.20;;;5.73;;
7025;SDS011;3554;42.132;24.786;2022-07-23T00:36:52;11.33;;;5.67;;
7025;SDS011;3554;42.132;24.786;2022-07-23T00:39:19;5.70;;;5.20;;
7025;SDS011;3554;42.132;24.786;2022-07-23T00:41:47;7.10;;;5.00;;
7025;SDS011;3554;42.132;24.786;2022-07-23T00:44:16;5.97;;;5.47;;
7025;SDS011;3554;42.132;24.786;2022-07-23T00:46:48;5.60;;;5.20;;
7025;SDS011;3554;42.132;24.786;2022-07-23T00:49:18;7.37;;;5.43;;
7025;SDS011;3554;42.132;24.786;2022-07-23T00:51:45;5.33;;;4.63;;
7025;SDS011;3554;42.132;24.786;2022-07-23T00:54:12;7.77;;;4.60;;
7025;SDS011;3554;42.132;24.786;2022-07-23T00:56:39;7.13;;;5.33;;
7025;SDS011;3554;42.132;24.786;2022-07-23T00:59:07;5.77;;;5.10;;
7025;SDS011;3554;42.132;24.786;2022-07-23T01:01:36;6.17;;;5.77;;
7025;SDS011;3554;42.132;24.786;2022-07-23T01:04:04;7.13;;;6.37;;
7025;SDS011;3554;42.132;24.786;2022-07-23T01:06:31;8.03;;;6.73;;
7025;SDS011;3554;42.132;24.786;2022-07-23T01:09:03;7.87;;;7.03;;
7025;SDS011;3554;42.132;24.786;2022-07-23T01:11:31;8.57;;;7.70;;
7025;SDS011;3554;42.132;24.786;2022-07-23T01:13:58;10.73;;;8.53;;
7025;SDS011;3554;42.132;24.786;2022-07-23T01:16:25;10.00;;;9.00;;
7025;SDS011;3554;42.132;24.786;2022-07-23T01:18:54;9.97;;;8.97;;
7025;SDS011;3554;42.132;24.786;2022-07-23T01:21:20;11.17;;;9.60;;
7025;SDS011;3554;42.132;24.786;2022-07-23T01:23:49;10.47;;;9.47;;
7025;SDS011;3554;42.132;24.786;2022-07-23T01:26:16;12.80;;;9.07;;
7025;SDS011;3554;42.132;24.786;2022-07-23T01:28:43;10.97;;;9.83;;
7025;SDS011;3554;42.132;24.786;2022-07-23T01:31:10;10.80;;;9.80;;
7025;SDS011;3554;42.132;24.786;2022-07-23T01:33:37;20.67;;;11.00;;
7025;SDS011;3554;42.132;24.786;2022-07-23T01:36:04;13.87;;;10.77;;
7025;SDS011;3554;42.132;24.786;2022-07-23T01:38:31;13.23;;;9.77;;
7025;SDS011;3554;42.132;24.786;2022-07-23T01:40:59;9.27;;;8.43;;
7025;SDS011;3554;42.132;24.786;2022-07-23T01:43:26;11.47;;;9.53;;
7025;SDS011;3554;42.132;24.786;2022-07-23T01:45:53;12.07;;;9.27;;
7025;SDS011;3554;42.132;24.786;2022-07-23T01:48:20;10.67;;;9.70;;
7025;SDS011;3554;42.132;24.786;2022-07-23T01:50:47;10.47;;;9.70;;
7025;SDS011;3554;42.132;24.786;2022-07-23T01:53:14;11.27;;;10.37;;
7025;SDS011;3554;42.132;24.786;2022-07-23T01:55:41;10.53;;;9.67;;
7025;SDS011;3554;42.132;24.786;2022-07-23T01:58:10;12.10;;;11.07;;
7025;SDS011;3554;42.132;24.786;2022-07-23T02:00:37;10.77;;;9.77;;
7025;SDS011;3554;42.132;24.786;2022-07-23T02:03:04;11.60;;;10.60;;
7025;SDS011;3554;42.132;24.786;2022-07-23T02:05:31;12.97;;;11.80;;
7025;SDS011;3554;42.132;24.786;2022-07-23T02:07:58;16.50;;;12.23;;
7025;SDS011;3554;42.132;24.786;2022-07-23T02:10:25;13.13;;;11.73;;
7025;SDS011;3554;42.132;24.786;2022-07-23T02:12:53;13.97;;;12.40;;
7025;SDS011;3554;42.132;24.786;2022-07-23T02:15:21;16.30;;;12.83;;
7025;SDS011;3554;42.132;24.786;2022-07-23T02:17:48;16.07;;;12.97;;
7025;SDS011;3554;42.132;24.786;2022-07-23T02:20:15;14.20;;;12.73;;
7025;SDS011;3554;42.132;24.786;2022-07-23T02:22:42;16.50;;;12.93;;
7025;SDS011;3554;42.132;24.786;2022-07-23T02:25:09;16.70;;;12.17;;
7025;SDS011;3554;42.132;24.786;2022-07-23T02:27:36;14.53;;;11.93;;
7025;SDS011;3554;42.132;24.786;2022-07-23T02:30:04;14.00;;;12.03;;
7025;SDS011;3554;42.132;24.786;2022-07-23T02:32:33;14.17;;;12.83;;
7025;SDS011;3554;42.132;24.786;2022-07-23T02:35:00;16.23;;;13.07;;
7025;SDS011;3554;42.132;24.786;2022-07-23T02:37:28;17.73;;;13.07;;
7025;SDS011;3554;42.132;24.786;2022-07-23T02:39:55;19.73;;;13.23;;
7025;SDS011;3554;42.132;24.786;2022-07-23T02:42:21;14.63;;;13.17;;
7025;SDS011;3554;42.132;24.786;2022-07-23T02:44:49;16.80;;;12.50;;
7025;SDS011;3554;42.132;24.786;2022-07-23T02:47:16;12.63;;;10.73;;
7025;SDS011;3554;42.132;24.786;2022-07-23T02:49:44;14.13;;;11.20;;
7025;SDS011;3554;42.132;24.786;2022-07-23T02:52:11;13.67;;;11.93;;
7025;SDS011;3554;42.132;24.786;2022-07-23T02:54:38;14.77;;;11.37;;
7025;SDS011;3554;42.132;24.786;2022-07-23T02:57:05;20.27;;;11.33;;
7025;SDS011;3554;42.132;24.786;2022-07-23T02:59:32;12.50;;;11.00;;
7025;SDS011;3554;42.132;24.786;2022-07-23T03:01:58;12.17;;;10.97;;
7025;SDS011;3554;42.132;24.786;2022-07-23T03:04:25;12.13;;;11.00;;
7025;SDS011;3554;42.132;24.786;2022-07-23T03:06:53;14.63;;;10.40;;
7025;SDS011;3554;42.132;24.786;2022-07-23T03:09:20;12.50;;;9.97;;
7025;SDS011;3554;42.132;24.786;2022-07-23T03:11:47;10.57;;;9.57;;
7025;SDS011;3554;42.132;24.786;2022-07-23T03:14:14;10.17;;;9.03;;
7025;SDS011;3554;42.132;24.786;2022-07-23T03:16:41;9.53;;;8.33;;
7025;SDS011;3554;42.132;24.786;2022-07-23T03:19:08;9.30;;;8.60;;
7025;SDS011;3554;42.132;24.786;2022-07-23T03:21:35;9.77;;;8.87;;
7025;SDS011;3554;42.132;24.786;2022-07-23T03:24:06;9.37;;;8.53;;
7025;SDS011;3554;42.132;24.786;2022-07-23T03:26:34;9.23;;;8.43;;
7025;SDS011;3554;42.132;24.786;2022-07-23T03:29:01;9.70;;;8.80;;
7025;SDS011;3554;42.132;24.786;2022-07-23T03:31:28;10.07;;;9.20;;
7025;SDS011;3554;42.132;24.786;2022-07-23T03:33:56;10.33;;;9.37;;
7025;SDS011;3554;42.132;24.786;2022-07-23T03:36:23;14.13;;;8.60;;
7025;SDS011;3554;42.132;24.786;2022-07-23T03:38:50;9.50;;;8.57;;
7025;SDS011;3554;42.132;24.786;2022-07-23T03:41:18;9.10;;;8.17;;
7025;SDS011;3554;42.132;24.786;2022-07-23T03:43:46;9.00;;;7.67;;
7025;SDS011;3554;42.132;24.786;2022-07-23T03:46:13;8.57;;;7.90;;
7025;SDS011;3554;42.132;24.786;2022-07-23T03:48:40;9.33;;;8.23;;
7025;SDS011;3554;42.132;24.786;2022-07-23T03:51:07;9.07;;;8.27;;
7025;SDS011;3554;42.132;24.786;2022-07-23T03:53:34;8.63;;;7.97;;
7025;SDS011;3554;42.132;24.786;2022-07-23T03:56:00;9.80;;;8.70;;
7025;SDS011;3554;42.132;24.786;2022-07-23T03:58:29;9.63;;;8.60;;
7025;SDS011;3554;42.132;24.786;2022-07-23T04:00:55;8.63;;;7.83;;
7025;SDS011;3554;42.132;24.786;2022-07-23T04:03:22;9.57;;;8.47;;
7025;SDS011;3554;42.132;24.786;2022-07-23T04:05:49;8.97;;;7.93;;
7025;SDS011;3554;42.132;24.786;2022-07-23T04:08:16;8.33;;;7.83;;
7025;SDS011;3554;42.132;24.786;2022-07-23T04:10:43;12.37;;;10.90;;
7025;SDS011;3554;42.132;24.786;2022-07-23T04:13:10;9.70;;;8.17;;
7025;SDS011;3554;42.132;24.786;2022-07-23T04:15:38;8.23;;;7.47;;
7025;SDS011;3554;42.132;24.786;2022-07-23T04:18:05;10.50;;;7.57;;
7025;SDS011;3554;42.132;24.786;2022-07-23T04:20:33;9.07;;;7.63;;
7025;SDS011;3554;42.132;24.786;2022-07-23T04:23:00;8.40;;;7.70;;
7025;SDS011;3554;42.132;24.786;2022-07-23T04:25:26;9.50;;;8.73;;
7025;SDS011;3554;42.132;24.786;2022-07-23T04:27:53;8.33;;;7.70;;
7025;SDS011;3554;42.132;24.786;2022-07-23T04:30:20;8.90;;;7.40;;
7025;SDS011;3554;42.132;24.786;2022-07-23T04:32:48;8.50;;;7.70;;
7025;SDS011;3554;42.132;24.786;2022-07-23T04:35:15;8.17;;;7.50;;
7025;SDS011;3554;42.132;24.786;2022-07-23T04:37:42;12.60;;;9.07;;
7025;SDS011;3554;42.132;24.786;2022-07-23T04:40:09;10.90;;;8.93;;
7025;SDS011;3554;42.132;24.786;2022-07-23T04:42:37;11.37;;;9.27;;
7025;SDS011;3554;42.132;24.786;2022-07-23T04:45:04;11.17;;;10.10;;
7025;SDS011;3554;42.132;24.786;2022-07-23T04:47:31;10.87;;;10.07;;
7025;SDS011;3554;42.132;24.786;2022-07-23T04:50:00;13.33;;;10.80;;
7025;SDS011;3554;42.132;24.786;2022-07-23T04:52:27;11.77;;;10.87;;
7025;SDS011;3554;42.132;24.786;2022-07-23T04:54:53;11.87;;;10.77;;
7025;SDS011;3554;42.132;24.786;2022-07-23T04:57:20;18.07;;;14.13;;
7025;SDS011;3554;42.132;24.786;2022-07-23T04:59:47;13.00;;;11.43;;
7025;SDS011;3554;42.132;24.786;2022-07-23T05:02:14;12.77;;;11.07;;
7025;SDS011;3554;42.132;24.786;2022-07-23T05:04:41;13.80;;;10.83;;
7025;SDS011;3554;42.132;24.786;2022-07-23T05:07:09;10.97;;;10.00;;
7025;SDS011;3554;42.132;24.786;2022-07-23T05:09:36;14.13;;;10.63;;
7025;SDS011;3554;42.132;24.786;2022-07-23T05:12:03;12.47;;;11.27;;
7025;SDS011;3554;42.132;24.786;2022-07-23T05:14:30;12.27;;;11.27;;
7025;SDS011;3554;42.132;24.786;2022-07-23T05:16:57;11.17;;;10.00;;
7025;SDS011;3554;42.132;24.786;2022-07-23T05:19:24;13.50;;;12.30;;
7025;SDS011;3554;42.132;24.786;2022-07-23T05:21:51;15.20;;;13.67;;
7025;SDS011;3554;42.132;24.786;2022-07-23T05:24:19;16.27;;;14.67;;
7025;SDS011;3554;42.132;24.786;2022-07-23T05:26:46;12.33;;;11.10;;
7025;SDS011;3554;42.132;24.786;2022-07-23T05:29:13;12.43;;;11.10;;
7025;SDS011;3554;42.132;24.786;2022-07-23T05:31:40;14.03;;;12.63;;
7025;SDS011;3554;42.132;24.786;2022-07-23T05:34:06;14.93;;;12.57;;
7025;SDS011;3554;42.132;24.786;2022-07-23T05:36:33;14.90;;;13.40;;
7025;SDS011;3554;42.132;24.786;2022-07-23T05:39:00;13.80;;;11.90;;
7025;SDS011;3554;42.132;24.786;2022-07-23T05:41:29;12.63;;;11.57;;
7025;SDS011;3554;42.132;24.786;2022-07-23T05:43:55;15.50;;;13.67;;
7025;SDS011;3554;42.132;24.786;2022-07-23T05:49:07;15.57;;;9.97;;
7025;SDS011;3554;42.132;24.786;2022-07-23T05:51:34;12.73;;;11.03;;
7025;SDS011;3554;42.132;24.786;2022-07-23T05:54:01;13.47;;;10.10;;
7025;SDS011;3554;42.132;24.786;2022-07-23T05:56:29;12.27;;;9.40;;
7025;SDS011;3554;42.132;24.786;2022-07-23T05:58:56;10.30;;;9.20;;
7025;SDS011;3554;42.132;24.786;2022-07-23T06:01:23;10.07;;;9.10;;
7025;SDS011;3554;42.132;24.786;2022-07-23T06:03:50;10.23;;;8.60;;
7025;SDS011;3554;42.132;24.786;2022-07-23T06:06:17;8.90;;;8.00;;
7025;SDS011;3554;42.132;24.786;2022-07-23T06:08:43;11.63;;;10.33;;
7025;SDS011;3554;42.132;24.786;2022-07-23T06:11:10;12.10;;;9.73;;
7025;SDS011;3554;42.132;24.786;2022-07-23T06:13:38;12.67;;;9.53;;
7025;SDS011;3554;42.132;24.786;2022-07-23T06:16:05;9.97;;;9.10;;
7025;SDS011;3554;42.132;24.786;2022-07-23T06:18:32;13.60;;;11.13;;
7025;SDS011;3554;42.132;24.786;2022-07-23T06:20:59;10.80;;;10.00;;
7025;SDS011;3554;42.132;24.786;2022-07-23T06:23:26;31.33;;;10.47;;
7025;SDS011;3554;42.132;24.786;2022-07-23T06:25:53;9.97;;;9.03;;
7025;SDS011;3554;42.132;24.786;2022-07-23T06:28:20;10.10;;;9.23;;
7025;SDS011;3554;42.132;24.786;2022-07-23T06:30:48;11.13;;;10.23;;
7025;SDS011;3554;42.132;24.786;2022-07-23T06:33:14;11.13;;;9.83;;
7025;SDS011;3554;42.132;24.786;2022-07-23T06:35:41;19.97;;;9.70;;
7025;SDS011;3554;42.132;24.786;2022-07-23T06:38:08;8.80;;;8.10;;
7025;SDS011;3554;42.132;24.786;2022-07-23T06:40:35;11.93;;;9.90;;
7025;SDS011;3554;42.132;24.786;2022-07-23T06:43:02;11.17;;;10.00;;
7025;SDS011;3554;42.132;24.786;2022-07-23T06:45:29;11.57;;;10.60;;
7025;SDS011;3554;42.132;24.786;2022-07-23T06:47:57;28.20;;;10.50;;
7025;SDS011;3554;42.132;24.786;2022-07-23T06:50:24;12.93;;;8.97;;
7025;SDS011;3554;42.132;24.786;2022-07-23T06:52:51;11.33;;;10.13;;
7025;SDS011;3554;42.132;24.786;2022-07-23T06:55:17;14.93;;;9.87;;
7025;SDS011;3554;42.132;24.786;2022-07-23T06:57:44;9.67;;;9.07;;
7025;SDS011;3554;42.132;24.786;2022-07-23T07:00:11;10.17;;;9.03;;
7025;SDS011;3554;42.132;24.786;2022-07-23T07:02:38;14.43;;;8.33;;
7025;SDS011;3554;42.132;24.786;2022-07-23T07:05:07;8.10;;;7.27;;
7025;SDS011;3554;42.132;24.786;2022-07-23T07:07:34;7.80;;;7.07;;
7025;SDS011;3554;42.132;24.786;2022-07-23T07:10:02;9.40;;;6.97;;
7025;SDS011;3554;42.132;24.786;2022-07-23T07:12:29;7.50;;;6.87;;
7025;SDS011;3554;42.132;24.786;2022-07-23T07:14:56;7.57;;;6.87;;
7025;SDS011;3554;42.132;24.786;2022-07-23T07:17:23;7.80;;;6.93;;
7025;SDS011;3554;42.132;24.786;2022-07-23T07:19:50;9.40;;;7.63;;
7025;SDS011;3554;42.132;24.786;2022-07-23T07:22:18;7.53;;;6.93;;
7025;SDS011;3554;42.132;24.786;2022-07-23T07:24:45;7.00;;;6.30;;
7025;SDS011;3554;42.132;24.786;2022-07-23T07:27:11;6.17;;;5.60;;
7025;SDS011;3554;42.132;24.786;2022-07-23T07:29:38;6.97;;;6.47;;
7025;SDS011;3554;42.132;24.786;2022-07-23T07:32:05;6.90;;;6.40;;
7025;SDS011;3554;42.132;24.786;2022-07-23T07:34:32;8.17;;;6.80;;
7025;SDS011;3554;42.132;24.786;2022-07-23T07:36:59;7.90;;;6.43;;
7025;SDS011;3554;42.132;24.786;2022-07-23T07:39:27;7.00;;;6.37;;
7025;SDS011;3554;42.132;24.786;2022-07-23T07:41:54;6.83;;;6.23;;
7025;SDS011;3554;42.132;24.786;2022-07-23T07:44:21;10.68;;;7.03;;
7025;SDS011;3554;42.132;24.786;2022-07-23T07:46:48;7.70;;;6.38;;
7025;SDS011;3554;42.132;24.786;2022-07-23T07:49:14;7.18;;;6.50;;
7025;SDS011;3554;42.132;24.786;2022-07-23T07:51:42;6.60;;;6.18;;
7025;SDS011;3554;42.132;24.786;2022-07-23T07:54:09;7.43;;;6.35;;
7025;SDS011;3554;42.132;24.786;2022-07-23T07:56:37;8.30;;;6.32;;
7025;SDS011;3554;42.132;24.786;2022-07-23T07:59:04;7.30;;;6.13;;
7025;SDS011;3554;42.132;24.786;2022-07-23T08:01:31;6.93;;;6.30;;
7025;SDS011;3554;42.132;24.786;2022-07-23T08:03:58;8.70;;;6.23;;
7025;SDS011;3554;42.132;24.786;2022-07-23T08:06:25;7.17;;;6.13;;
7025;SDS011;3554;42.132;24.786;2022-07-23T08:08:52;6.95;;;6.10;;
7025;SDS011;3554;42.132;24.786;2022-07-23T08:11:18;6.53;;;6.03;;
7025;SDS011;3554;42.132;24.786;2022-07-23T08:13:47;8.27;;;6.23;;
7025;SDS011;3554;42.132;24.786;2022-07-23T08:16:14;11.63;;;5.40;;
7025;SDS011;3554;42.132;24.786;2022-07-23T08:18:41;10.20;;;5.97;;
7025;SDS011;3554;42.132;24.786;2022-07-23T08:21:08;6.30;;;5.78;;
7025;SDS011;3554;42.132;24.786;2022-07-23T08:23:35;6.75;;;6.20;;
7025;SDS011;3554;42.132;24.786;2022-07-23T08:26:01;6.70;;;6.20;;
7025;SDS011;3554;42.132;24.786;2022-07-23T08:28:28;10.73;;;6.47;;
7025;SDS011;3554;42.132;24.786;2022-07-23T08:30:59;6.35;;;5.65;;
7025;SDS011;3554;42.132;24.786;2022-07-23T08:33:26;5.50;;;5.10;;
7025;SDS011;3554;42.132;24.786;2022-07-23T08:35:53;5.93;;;5.45;;
7025;SDS011;3554;42.132;24.786;2022-07-23T08:38:21;6.88;;;5.35;;
7025;SDS011;3554;42.132;24.786;2022-07-23T08:40:49;9.93;;;6.72;;
7025;SDS011;3554;42.132;24.786;2022-07-23T08:43:17;5.72;;;5.32;;
7025;SDS011;3554;42.132;24.786;2022-07-23T08:45:46;8.45;;;6.25;;
7025;SDS011;3554;42.132;24.786;2022-07-23T08:48:17;6.43;;;6.03;;
7025;SDS011;3554;42.132;24.786;2022-07-23T08:50:46;5.88;;;5.45;;
7025;SDS011;3554;42.132;24.786;2022-07-23T08:53:14;9.50;;;6.22;;
7025;SDS011;3554;42.132;24.786;2022-07-23T08:55:43;12.10;;;6.13;;
7025;SDS011;3554;42.132;24.786;2022-07-23T08:58:11;8.38;;;5.93;;
7025;SDS011;3554;42.132;24.786;2022-07-23T09:00:38;10.35;;;5.85;;
7025;SDS011;3554;42.132;24.786;2022-07-23T09:03:05;7.40;;;5.50;;
7025;SDS011;3554;42.132;24.786;2022-07-23T09:05:33;6.20;;;5.80;;
7025;SDS011;3554;42.132;24.786;2022-07-23T09:08:07;5.97;;;5.38;;
7025;SDS011;3554;42.132;24.786;2022-07-23T09:13:28;11.18;;;6.10;;
7025;SDS011;3554;42.132;24.786;2022-07-23T09:16:01;8.48;;;6.18;;
7025;SDS011;3554;42.132;24.786;2022-07-23T09:18:31;7.25;;;6.70;;
7025;SDS011;3554;42.132;24.786;2022-07-23T09:21:08;7.03;;;6.40;;
7025;SDS011;3554;42.132;24.786;2022-07-23T09:23:40;7.07;;;6.38;;
7025;SDS011;3554;42.132;24.786;2022-07-23T09:26:21;7.07;;;6.45;;
7025;SDS011;3554;42.132;24.786;2022-07-23T09:29:06;8.13;;;6.10;;
7025;SDS011;3554;42.132;24.786;2022-07-23T09:31:45;6.80;;;5.90;;
7025;SDS011;3554;42.132;24.786;2022-07-23T09:34:14;5.32;;;4.90;;
7025;SDS011;3554;42.132;24.786;2022-07-23T09:36:44;6.82;;;6.18;;
7025;SDS011;3554;42.132;24.786;2022-07-23T09:39:13;8.50;;;6.10;;
7025;SDS011;3554;42.132;24.786;2022-07-23T09:41:41;7.85;;;6.05;;
7025;SDS011;3554;42.132;24.786;2022-07-23T09:44:11;6.63;;;6.13;;
7025;SDS011;3554;42.132;24.786;2022-07-23T09:46:41;6.90;;;6.35;;
7025;SDS011;3554;42.132;24.786;2022-07-23T09:49:12;8.00;;;5.90;;
7025;SDS011;3554;42.132;24.786;2022-07-23T09:51:45;6.65;;;5.20;;
7025;SDS011;3554;42.132;24.786;2022-07-23T09:54:25;6.25;;;5.85;;
7025;SDS011;3554;42.132;24.786;2022-07-23T09:56:55;6.07;;;5.40;;
7025;SDS011;3554;42.132;24.786;2022-07-23T09:59:24;10.65;;;6.10;;
7025;SDS011;3554;42.132;24.786;2022-07-23T10:01:52;11.05;;;6.35;;
7025;SDS011;3554;42.132;24.786;2022-07-23T10:04:21;6.78;;;6.10;;
7025;SDS011;3554;42.132;24.786;2022-07-23T10:06:52;6.32;;;5.70;;
7025;SDS011;3554;42.132;24.786;2022-07-23T10:09:22;5.78;;;5.38;;
7025;SDS011;3554;42.132;24.786;2022-07-23T10:11:51;7.80;;;5.18;;
7025;SDS011;3554;42.132;24.786;2022-07-23T10:14:22;13.85;;;4.75;;
7025;SDS011;3554;42.132;24.786;2022-07-23T10:16:48;6.80;;;5.03;;
7025;SDS011;3554;42.132;24.786;2022-07-23T10:19:16;4.75;;;4.45;;
7025;SDS011;3554;42.132;24.786;2022-07-23T10:21:44;7.93;;;4.78;;
7025;SDS011;3554;42.132;24.786;2022-07-23T10:24:17;6.20;;;4.82;;
7025;SDS011;3554;42.132;24.786;2022-07-23T10:26:58;5.38;;;4.10;;
7025;SDS011;3554;42.132;24.786;2022-07-23T10:29:37;6.35;;;4.45;;
7025;SDS011;3554;42.132;24.786;2022-07-23T10:32:16;8.95;;;4.43;;
7025;SDS011;3554;42.132;24.786;2022-07-23T10:34:50;6.68;;;4.30;;
7025;SDS011;3554;42.132;24.786;2022-07-23T10:37:22;6.38;;;4.93;;
7025;SDS011;3554;42.132;24.786;2022-07-23T10:40:14;5.07;;;4.43;;
7025;SDS011;3554;42.132;24.786;2022-07-23T10:42:42;4.55;;;4.15;;
7025;SDS011;3554;42.132;24.786;2022-07-23T10:45:26;5.55;;;4.82;;
7025;SDS011;3554;42.132;24.786;2022-07-23T10:48:11;5.40;;;4.38;;
7025;SDS011;3554;42.132;24.786;2022-07-23T10:50:40;4.90;;;4.50;;
7025;SDS011;3554;42.132;24.786;2022-07-23T10:53:08;5.97;;;4.60;;
7025;SDS011;3554;42.132;24.786;2022-07-23T10:55:43;5.65;;;4.57;;
7025;SDS011;3554;42.132;24.786;2022-07-23T10:58:19;5.20;;;4.72;;
7025;SDS011;3554;42.132;24.786;2022-07-23T11:00:47;6.72;;;4.65;;
7025;SDS011;3554;42.132;24.786;2022-07-23T11:03:28;7.07;;;5.10;;
7025;SDS011;3554;42.132;24.786;2022-07-23T11:06:01;4.75;;;4.45;;
7025;SDS011;3554;42.132;24.786;2022-07-23T11:08:28;9.10;;;5.20;;
7025;SDS011;3554;42.132;24.786;2022-07-23T11:11:07;7.30;;;4.93;;
7025;SDS011;3554;42.132;24.786;2022-07-23T11:13:37;10.77;;;4.88;;
7025;SDS011;3554;42.132;24.786;2022-07-23T11:16:19;5.30;;;4.80;;
7025;SDS011;3554;42.132;24.786;2022-07-23T11:18:58;7.68;;;4.43;;
7025;SDS011;3554;42.132;24.786;2022-07-23T11:21:48;6.78;;;4.38;;
7025;SDS011;3554;42.132;24.786;2022-07-23T11:24:24;8.15;;;4.63;;
7025;SDS011;3554;42.132;24.786;2022-07-23T11:26:57;5.20;;;4.70;;
7025;SDS011;3554;42.132;24.786;2022-07-23T11:32:28;11.40;;;5.20;;
7025;SDS011;3554;42.132;24.786;2022-07-23T11:38:05;6.97;;;4.88;;
7025;SDS011;3554;42.132;24.786;2022-07-23T11:40:34;5.15;;;4.65;;
7025;SDS011;3554;42.132;24.786;2022-07-23T11:43:03;5.22;;;4.82;;
7025;SDS011;3554;42.132;24.786;2022-07-23T11:45:32;10.57;;;5.43;;
7025;SDS011;3554;42.132;24.786;2022-07-23T11:48:01;5.25;;;4.85;;
7025;SDS011;3554;42.132;24.786;2022-07-23T11:50:28;9.10;;;5.10;;
7025;SDS011;3554;42.132;24.786;2022-07-23T11:52:55;6.07;;;4.85;;
7025;SDS011;3554;42.132;24.786;2022-07-23T11:55:23;7.07;;;5.47;;
7025;SDS011;3554;42.132;24.786;2022-07-23T11:57:51;5.75;;;5.13;;
7025;SDS011;3554;42.132;24.786;2022-07-23T12:00:20;5.07;;;4.68;;
7025;SDS011;3554;42.132;24.786;2022-07-23T12:02:49;5.70;;;4.88;;
7025;SDS011;3554;42.132;24.786;2022-07-23T12:05:19;7.53;;;5.35;;
7025;SDS011;3554;42.132;24.786;2022-07-23T12:07:47;5.93;;;4.97;;
7025;SDS011;3554;42.132;24.786;2022-07-23T12:10:16;11.00;;;4.95;;
7025;SDS011;3554;42.132;24.786;2022-07-23T12:12:45;7.22;;;4.93;;
7025;SDS011;3554;42.132;24.786;2022-07-23T12:15:15;13.45;;;5.10;;
7025;SDS011;3554;42.132;24.786;2022-07-23T12:17:45;6.30;;;5.10;;
7025;SDS011;3554;42.132;24.786;2022-07-23T12:20:13;8.35;;;4.95;;
7025;SDS011;3554;42.132;24.786;2022-07-23T12:22:42;9.30;;;5.00;;
7025;SDS011;3554;42.132;24.786;2022-07-23T12:25:12;5.55;;;4.97;;
7025;SDS011;3554;42.132;24.786;2022-07-23T12:27:40;7.47;;;5.07;;
7025;SDS011;3554;42.132;24.786;2022-07-23T12:30:21;6.68;;;5.53;;
7025;SDS011;3554;42.132;24.786;2022-07-23T12:32:52;20.55;;;6.10;;
7025;SDS011;3554;42.132;24.786;2022-07-23T12:35:20;9.02;;;5.63;;
7025;SDS011;3554;42.132;24.786;2022-07-23T12:37:49;14.82;;;5.50;;
7025;SDS011;3554;42.132;24.786;2022-07-23T12:40:24;9.30;;;5.18;;
7025;SDS011;3554;42.132;24.786;2022-07-23T12:42:54;10.55;;;5.70;;
7025;SDS011;3554;42.132;24.786;2022-07-23T12:45:22;11.40;;;5.82;;
7025;SDS011;3554;42.132;24.786;2022-07-23T12:48:01;6.53;;;4.78;;
7025;SDS011;3554;42.132;24.786;2022-07-23T12:50:34;8.15;;;5.05;;
7025;SDS011;3554;42.132;24.786;2022-07-23T12:53:07;5.30;;;4.43;;
7025;SDS011;3554;42.132;24.786;2022-07-23T12:55:35;6.80;;;5.05;;
7025;SDS011;3554;42.132;24.786;2022-07-23T12:58:04;6.55;;;4.70;;
7025;SDS011;3554;42.132;24.786;2022-07-23T13:00:52;6.10;;;4.78;;
7025;SDS011;3554;42.132;24.786;2022-07-23T13:03:22;10.95;;;4.53;;
7025;SDS011;3554;42.132;24.786;2022-07-23T13:05:54;12.13;;;5.13;;
7025;SDS011;3554;42.132;24.786;2022-07-23T13:08:21;6.28;;;5.35;;
7025;SDS011;3554;42.132;24.786;2022-07-23T13:10:49;5.60;;;5.00;;
7025;SDS011;3554;42.132;24.786;2022-07-23T13:13:17;7.30;;;5.15;;
7025;SDS011;3554;42.132;24.786;2022-07-23T13:15:46;8.85;;;5.68;;
7025;SDS011;3554;42.132;24.786;2022-07-23T13:18:13;8.75;;;5.53;;
7025;SDS011;3554;42.132;24.786;2022-07-23T13:20:41;10.10;;;4.88;;
7025;SDS011;3554;42.132;24.786;2022-07-23T13:23:08;7.53;;;5.25;;
7025;SDS011;3554;42.132;24.786;2022-07-23T13:25:35;11.90;;;5.82;;
7025;SDS011;3554;42.132;24.786;2022-07-23T13:28:02;10.93;;;5.10;;
7025;SDS011;3554;42.132;24.786;2022-07-23T13:30:29;4.63;;;4.32;;
7025;SDS011;3554;42.132;24.786;2022-07-23T13:32:56;9.85;;;6.13;;
7025;SDS011;3554;42.132;24.786;2022-07-23T13:35:23;8.10;;;5.00;;
7025;SDS011;3554;42.132;24.786;2022-07-23T13:37:51;8.23;;;5.25;;
7025;SDS011;3554;42.132;24.786;2022-07-23T13:40:18;10.65;;;5.10;;
7025;SDS011;3554;42.132;24.786;2022-07-23T13:42:45;8.90;;;5.82;;
7025;SDS011;3554;42.132;24.786;2022-07-23T13:45:12;6.00;;;4.85;;
7025;SDS011;3554;42.132;24.786;2022-07-23T13:47:39;10.50;;;5.15;;
7025;SDS011;3554;42.132;24.786;2022-07-23T13:50:06;6.85;;;5.32;;
7025;SDS011;3554;42.132;24.786;2022-07-23T13:52:34;6.38;;;4.70;;
7025;SDS011;3554;42.132;24.786;2022-07-23T13:55:02;5.85;;;5.20;;
7025;SDS011;3554;42.132;24.786;2022-07-23T13:57:31;10.52;;;6.00;;
7025;SDS011;3554;42.132;24.786;2022-07-23T13:59:59;7.15;;;5.28;;
7025;SDS011;3554;42.132;24.786;2022-07-23T14:02:27;5.15;;;4.63;;
7025;SDS011;3554;42.132;24.786;2022-07-23T14:04:54;8.27;;;5.20;;
7025;SDS011;3554;42.132;24.786;2022-07-23T14:07:22;9.30;;;5.05;;
7025;SDS011;3554;42.132;24.786;2022-07-23T14:09:48;6.53;;;4.90;;
7025;SDS011;3554;42.132;24.786;2022-07-23T14:12:17;5.95;;;4.80;;
7025;SDS011;3554;42.132;24.786;2022-07-23T14:14:44;8.70;;;6.00;;
7025;SDS011;3554;42.132;24.786;2022-07-23T14:17:11;7.07;;;5.07;;
7025;SDS011;3554;42.132;24.786;2022-07-23T14:19:37;8.25;;;5.57;;
7025;SDS011;3554;42.132;24.786;2022-07-23T14:22:04;8.13;;;5.65;;
7025;SDS011;3554;42.132;24.786;2022-07-23T14:24:31;7.00;;;4.72;;
7025;SDS011;3554;42.132;24.786;2022-07-23T14:26:59;7.22;;;5.03;;
7025;SDS011;3554;42.132;24.786;2022-07-23T14:29:27;8.18;;;5.13;;
7025;SDS011;3554;42.132;24.786;2022-07-23T14:31:55;9.23;;;5.00;;
7025;SDS011;3554;42.132;24.786;2022-07-23T14:34:21;11.20;;;5.80;;
7025;SDS011;3554;42.132;24.786;2022-07-23T14:36:49;5.65;;;5.07;;
7025;SDS011;3554;42.132;24.786;2022-07-23T14:39:15;8.10;;;5.53;;
7025;SDS011;3554;42.132;24.786;2022-07-23T14:41:42;8.63;;;5.07;;
7025;SDS011;3554;42.132;24.786;2022-07-23T14:44:10;7.90;;;5.28;;
7025;SDS011;3554;42.132;24.786;2022-07-23T14:46:38;10.68;;;5.45;;
7025;SDS011;3554;42.132;24.786;2022-07-23T14:49:05;8.45;;;5.00;;
7025;SDS011;3554;42.132;24.786;2022-07-23T14:51:32;6.75;;;5.35;;
7025;SDS011;3554;42.132;24.786;2022-07-23T14:53:59;6.63;;;5.05;;
7025;SDS011;3554;42.132;24.786;2022-07-23T14:56:25;7.18;;;5.25;;
7025;SDS011;3554;42.132;24.786;2022-07-23T14:58:52;14.77;;;5.05;;
7025;SDS011;3554;42.132;24.786;2022-07-23T15:01:21;8.90;;;4.95;;
7025;SDS011;3554;42.132;24.786;2022-07-23T15:03:49;5.72;;;4.97;;
7025;SDS011;3554;42.132;24.786;2022-07-23T15:06:16;9.55;;;5.30;;
7025;SDS011;3554;42.132;24.786;2022-07-23T15:08:43;5.07;;;4.43;;
7025;SDS011;3554;42.132;24.786;2022-07-23T15:11:10;8.68;;;5.25;;